Capitol Logistics 7481

Operating for MZN



KJFK
John F Kennedy International Airport
New York, New York
KAFW
Fort Worth Alliance Airport
Fort Worth, Texas

Activity Log

Date Flight Route Aircraft Duration
No Flights Yet

Route Details

Aircraft Information
Primary: Boeing 767-300BDSF
Backup: Boeing 757-200SF
Route Data
Distance: 1218nm
Duration: 3h 31m
Recm'd Route: DEEZZ5 CANDR SPOTZ Q480 HOTEE Q42 PSYKO HVQ Q68 LITTR PONYY TRUUK2
Origin Wx: KJFK 180151Z 03008KT 10SM FEW038 OVC050 11/02 A2983 RMK AO2 SLP101 T01060017
Dest. Wx: KAFW 180153Z 35010KT 10SM BKN160 OVC250 12/04 A3010 RMK AO2 SLP196 T01220044 $
Notes: